This is the latest recevied weather packets stored in our database for station/object K7AEL. If no packets are shown the sender has not sent any weather packets the latest 10 day(s).
| Time | Temp. | Humidity | Pressure | Rain* | Wind** | Luminosity | Snow |
|---|---|---|---|---|---|---|---|
| 1777924351 | 27.22° C | 21% | 1014.1 hPa | 0 mm | - | 220 W/m² | - |
| 1777923138 | 27.22° C | 22% | 1014 hPa | 0 mm | - | 248 W/m² | - |
| 1777922836 | 27.22° C | 21% | 1013.8 hPa | 0 mm | - | 249 W/m² | - |
| 1777922534 | 27.22° C | 22% | 1013.7 hPa | 0 mm | - | 267 W/m² | - |
| 1777922232 | 27.22° C | 22% | 1013.8 hPa | 0 mm | - | 296 W/m² | - |
| 1777921929 | 27.22° C | 23% | 1013.8 hPa | 0 mm | - | 285 W/m² | - |
| 1777921321 | 27.22° C | 23% | 1013.9 hPa | 0 mm | - | 384 W/m² | - |
| 1777920714 | 27.22° C | 23% | 1014 hPa | 0 mm | - | 364 W/m² | - |
| 1777919802 | 27.22° C | 22% | 1014.5 hPa | 0 mm | - | 343 W/m² | - |
| 1777919500 | 27.78° C | 22% | 1014.5 hPa | 0 mm | - | 412 W/m² | - |
| 1777919197 | 27.22° C | 22% | 1014.7 hPa | 0 mm | - | 394 W/m² | - |
| 1777918889 | 27.22° C | 22% | 1014.8 hPa | 0 mm | - | 394 W/m² | - |
| 1777918586 | 27.22° C | 23% | 1014.7 hPa | 0 mm | - | 407 W/m² | - |
| 1777918284 | 26.67° C | 23% | 1014.8 hPa | 0 mm | - | 446 W/m² | - |
| 1777917983 | 26.67° C | 25% | 1014.7 hPa | 0 mm | - | 300 W/m² | - |
| 1777917075 | 26.67° C | 24% | 1014.9 hPa | 0 mm | - | 331 W/m² | - |
| 1777915864 | 26.11° C | 25% | 1014.8 hPa | 0 mm | - | 335 W/m² | - |
| 1777915560 | 26.11° C | 24% | 1014.8 hPa | 0 mm | - | 333 W/m² | - |
| 1777914346 | 26.67° C | 26% | 1014.9 hPa | 0 mm | - | 302 W/m² | - |
| 1777911615 | 26.11° C | 30% | 1014.5 hPa | 0 mm | - | 376 W/m² | - |
| 1777911311 | 26.11° C | 29% | 1014.8 hPa | 0 mm | - | 371 W/m² | - |
| 1777909191 | 24.44° C | 32% | 1014.7 hPa | 0 mm | - | 335 W/m² | - |
| 1777908889 | 24.44° C | 33% | 1014.5 hPa | 0 mm | - | 216 W/m² | - |
| 1777907370 | 23.89° C | 33% | 1014.7 hPa | 0 mm | - | 212 W/m² | - |
| 1777907067 | 23.89° C | 33% | 1014.5 hPa | 0 mm | - | 141 W/m² | - |
* Rain latest hour (hover to see other rain measurements)
** Current wind speed in m/s (hover to see current wind gust speed)